createdAt,value
2023-01-18T00:02:38.273Z,18.41
2023-01-18T00:07:36.562Z,19.03
2023-01-18T00:12:35.846Z,19.55
2023-01-18T00:17:35.171Z,19.96
2023-01-18T00:22:35.490Z,20.17
2023-01-18T00:27:33.813Z,20.79
2023-01-18T00:32:34.134Z,21.42
2023-01-18T00:37:33.461Z,21.73
2023-01-18T00:42:31.752Z,22.14
2023-01-18T00:47:32.056Z,22.47
2023-01-18T00:52:31.386Z,22.77
2023-01-18T00:57:31.685Z,23.19
2023-01-18T01:02:29.020Z,23.50
2023-01-18T01:07:30.134Z,23.72
2023-01-18T01:12:28.389Z,24.02
2023-01-18T01:17:27.728Z,24.25
2023-01-18T01:22:26.038Z,24.66
2023-01-18T01:27:25.193Z,24.87
2023-01-18T01:32:24.312Z,25.09
2023-01-18T01:37:23.750Z,25.40
2023-01-18T01:42:23.847Z,25.61
2023-01-18T01:47:22.149Z,25.72
2023-01-18T01:52:22.533Z,25.82
2023-01-18T01:57:20.625Z,25.83
2023-01-18T02:02:20.002Z,26.04
2023-01-18T02:07:19.106Z,26.04
2023-01-18T02:12:20.424Z,26.06
2023-01-18T02:17:17.798Z,26.16
2023-01-18T02:22:17.900Z,26.27
2023-01-18T02:27:18.222Z,26.28
2023-01-18T02:32:15.526Z,26.28
2023-01-18T02:37:14.871Z,26.40
2023-01-18T02:42:14.977Z,26.40
2023-01-18T02:47:14.375Z,26.51
2023-01-18T02:52:12.499Z,26.51
2023-01-18T02:57:11.940Z,26.62
2023-01-18T03:02:11.227Z,26.72
2023-01-18T03:07:10.245Z,26.84
2023-01-18T03:12:11.559Z,26.93
2023-01-18T03:17:08.882Z,27.15
2023-01-18T03:22:08.169Z,27.15
2023-01-18T03:27:07.292Z,27.15
2023-01-18T03:32:06.603Z,27.05
2023-01-18T03:37:06.931Z,27.26
2023-01-18T03:42:06.312Z,27.36
2023-01-18T03:47:04.409Z,27.47
2023-01-18T03:52:04.754Z,27.48
2023-01-18T03:57:05.050Z,27.48
2023-01-18T04:02:02.420Z,27.58
2023-01-18T04:07:01.560Z,27.58
2023-01-18T04:12:01.876Z,27.69
2023-01-18T04:17:00.187Z,27.80
2023-01-18T04:22:00.534Z,27.91
2023-01-18T04:26:59.854Z,27.91
2023-01-18T04:31:58.154Z,27.37
2023-01-18T04:36:57.425Z,26.76
2023-01-18T04:41:58.736Z,26.34
2023-01-18T04:46:56.091Z,26.04
2023-01-18T04:51:55.300Z,25.83
2023-01-18T04:56:56.598Z,25.63
2023-01-18T05:01:54.892Z,25.53
2023-01-18T05:06:54.196Z,25.53
2023-01-18T05:11:53.508Z,25.53
2023-01-18T05:16:51.790Z,25.64
2023-01-18T05:21:51.147Z,25.64
2023-01-18T05:26:50.235Z,25.76
2023-01-18T05:31:50.613Z,25.85
2023-01-18T05:36:50.713Z,25.96
2023-01-18T05:41:48.036Z,26.07
2023-01-18T05:46:47.345Z,26.27
2023-01-18T05:51:46.638Z,26.48
2023-01-18T05:56:46.957Z,26.79
2023-01-18T06:01:45.277Z,27.00
2023-01-18T06:06:44.546Z,26.68
2023-01-18T06:11:44.850Z,26.06
2023-01-18T06:16:43.201Z,25.43
2023-01-18T06:21:43.305Z,24.91
2023-01-18T06:26:41.603Z,24.60
2023-01-18T06:31:40.945Z,24.49
2023-01-18T06:36:41.153Z,24.39
2023-01-18T06:41:39.445Z,24.40
2023-01-18T06:46:39.777Z,24.30
2023-01-18T06:51:39.070Z,24.50
2023-01-18T06:56:37.396Z,24.61
2023-01-18T07:01:37.843Z,24.91
2023-01-18T07:06:36.002Z,25.13
2023-01-18T07:11:38.343Z,25.33
2023-01-18T07:16:34.659Z,25.64
2023-01-18T07:21:33.970Z,25.94
2023-01-18T07:26:33.263Z,26.15
2023-01-18T07:31:31.647Z,26.46
2023-01-18T07:36:31.777Z,26.77
2023-01-18T07:41:32.082Z,26.89
2023-01-18T07:46:31.465Z,26.67
2023-01-18T07:51:29.593Z,26.35
2023-01-18T07:56:30.934Z,26.26
2023-01-18T08:01:29.319Z,23.80
2023-01-18T08:06:27.456Z,20.08
2023-01-18T08:11:27.765Z,17.71
2023-01-18T08:16:28.069Z,17.19
2023-01-18T08:21:25.358Z,16.36
2023-01-18T08:26:24.793Z,16.36
2023-01-18T08:31:23.975Z,16.57
2023-01-18T08:36:23.206Z,15.95
2023-01-18T08:41:22.372Z,15.85
2023-01-18T08:46:23.739Z,15.75
2023-01-18T08:51:20.862Z,15.64
2023-01-18T08:56:20.161Z,15.53
2023-01-18T09:01:21.605Z,15.53
2023-01-18T09:06:18.814Z,15.33
2023-01-18T09:11:19.169Z,15.22
2023-01-18T09:16:18.315Z,15.22
2023-01-18T09:21:16.616Z,15.32
2023-01-18T09:26:16.732Z,15.22
2023-01-18T09:31:14.877Z,15.11
2023-01-18T09:36:15.150Z,15.01
2023-01-18T09:41:15.522Z,15.01
2023-01-18T09:46:14.657Z,15.01
2023-01-18T09:51:12.982Z,14.71
2023-01-18T09:56:11.304Z,14.71
2023-01-18T10:01:11.703Z,14.61
2023-01-18T10:06:09.815Z,14.71
2023-01-18T10:11:09.944Z,14.71
2023-01-18T10:16:10.431Z,14.41
2023-01-18T10:21:07.718Z,14.31
2023-01-18T10:26:09.984Z,14.20
2023-01-18T10:31:06.436Z,14.22
2023-01-18T10:36:05.681Z,14.12
2023-01-18T10:41:05.868Z,14.01
2023-01-18T10:46:06.005Z,13.90
2023-01-18T10:51:03.295Z,13.81
2023-01-18T10:56:02.591Z,13.70
2023-01-18T11:01:02.092Z,13.60
2023-01-18T11:06:01.162Z,13.70
2023-01-18T11:11:01.345Z,13.91
2023-01-18T11:15:59.474Z,14.01
2023-01-18T11:20:59.609Z,13.91
2023-01-18T11:25:58.920Z,14.01
2023-01-18T11:30:57.196Z,13.90
2023-01-18T11:35:58.525Z,13.70
2023-01-18T11:40:56.925Z,13.70
2023-01-18T11:45:55.998Z,13.80
2023-01-18T11:50:54.282Z,13.80
2023-01-18T11:55:53.594Z,13.80
2023-01-18T12:00:55.150Z,13.90
2023-01-18T12:05:53.095Z,13.90
2023-01-18T12:10:51.242Z,14.20
2023-01-18T12:15:50.374Z,14.10
2023-01-18T12:20:49.652Z,14.00
2023-01-18T12:25:48.980Z,14.00
2023-01-18T12:30:49.331Z,14.20
2023-01-18T12:35:47.430Z,14.20
2023-01-18T12:40:46.585Z,14.29
2023-01-18T12:45:46.994Z,14.29
2023-01-18T12:50:45.100Z,14.39
2023-01-18T12:55:44.424Z,14.29
2023-01-18T13:00:43.754Z,14.19
2023-01-18T13:05:43.097Z,14.39
2023-01-18T13:10:42.422Z,14.49
2023-01-18T13:15:44.655Z,14.29
2023-01-18T13:20:41.978Z,14.49
2023-01-18T13:25:39.262Z,14.39
2023-01-18T13:30:41.577Z,14.49
2023-01-18T13:35:38.887Z,14.59
2023-01-18T13:40:38.195Z,14.48
2023-01-18T13:45:37.503Z,14.28
2023-01-18T13:50:36.818Z,14.28
2023-01-18T13:55:36.147Z,14.48
2023-01-18T14:00:35.448Z,14.48
2023-01-18T14:05:35.728Z,14.48
2023-01-18T14:10:34.003Z,14.48
2023-01-18T14:15:33.333Z,14.38
2023-01-18T14:20:32.645Z,14.28
2023-01-18T14:25:32.937Z,14.37
2023-01-18T14:30:32.235Z,14.28
2023-01-18T14:35:31.586Z,14.48
2023-01-18T14:40:30.859Z,14.89
2023-01-18T14:45:30.176Z,15.19
2023-01-18T14:50:28.475Z,14.58
2023-01-18T14:55:28.767Z,14.58
2023-01-18T15:00:27.194Z,14.58
2023-01-18T15:05:27.281Z,14.37
2023-01-18T15:10:26.595Z,14.17
2023-01-18T15:15:24.752Z,14.27
2023-01-18T15:20:23.054Z,14.37
2023-01-18T15:25:26.466Z,14.48
2023-01-18T15:30:23.567Z,14.67
2023-01-18T15:35:21.877Z,14.67
2023-01-18T15:40:22.213Z,14.68
2023-01-18T15:45:20.343Z,14.58
2023-01-18T15:50:20.699Z,14.37
2023-01-18T15:55:19.838Z,14.47
2023-01-18T16:00:18.168Z,14.58
2023-01-18T16:05:17.524Z,14.67
2023-01-18T16:10:17.652Z,14.67
2023-01-18T16:15:15.963Z,14.57
2023-01-18T16:20:15.440Z,14.77
2023-01-18T16:25:14.831Z,14.97
2023-01-18T16:30:15.799Z,15.69
2023-01-18T16:35:13.018Z,15.58
2023-01-18T16:40:13.169Z,15.28
2023-01-18T16:45:11.294Z,14.77
2023-01-18T16:50:11.607Z,14.67
2023-01-18T16:55:09.929Z,14.76
2023-01-18T17:00:11.272Z,14.87
2023-01-18T17:05:08.722Z,15.28
2023-01-18T17:10:08.943Z,15.79
2023-01-18T17:15:09.105Z,16.20
2023-01-18T17:20:06.356Z,15.69
2023-01-18T17:25:05.383Z,15.48
2023-01-18T17:30:04.902Z,14.87
2023-01-18T17:35:05.032Z,14.67
2023-01-18T17:40:15.690Z,14.86
2023-01-18T17:45:02.469Z,14.97
2023-01-18T17:50:03.614Z,15.17
2023-01-18T17:55:02.081Z,15.77
2023-01-18T18:00:00.259Z,15.25
2023-01-18T18:04:59.601Z,14.95
2023-01-18T18:10:05.280Z,15.06
2023-01-18T18:14:58.410Z,15.47
2023-01-18T18:19:58.502Z,16.08
2023-01-18T18:24:56.782Z,16.49
2023-01-18T18:29:57.951Z,17.00
2023-01-18T18:34:55.198Z,17.32
2023-01-18T18:39:54.250Z,16.69
2023-01-18T18:44:54.626Z,16.39
2023-01-18T18:49:53.575Z,15.99
2023-01-18T18:54:54.205Z,15.77
2023-01-18T18:59:52.494Z,15.27
2023-01-18T19:04:50.780Z,15.16
2023-01-18T19:09:51.975Z,15.16
2023-01-18T19:14:48.933Z,15.26
2023-01-18T19:19:50.266Z,15.16
2023-01-18T19:24:47.866Z,15.06
2023-01-18T19:29:48.198Z,14.96
2023-01-18T19:34:47.300Z,14.96
2023-01-18T19:39:46.560Z,15.06
2023-01-18T19:44:44.829Z,15.58
2023-01-18T19:49:44.117Z,15.78
2023-01-18T19:54:44.403Z,15.37
2023-01-18T19:59:41.737Z,15.47
2023-01-18T20:04:42.515Z,14.86
2023-01-18T20:09:43.332Z,14.65
2023-01-18T20:14:41.407Z,14.65
2023-01-18T20:19:42.364Z,14.86
2023-01-18T20:24:39.004Z,15.37
2023-01-18T20:29:38.007Z,16.28
2023-01-18T20:34:38.333Z,17.08
2023-01-18T20:39:38.400Z,17.48
2023-01-18T20:44:35.511Z,17.69
2023-01-18T20:49:38.674Z,16.96
2023-01-18T20:54:35.685Z,16.44
2023-01-18T20:59:33.176Z,20.31
2023-01-18T21:04:33.316Z,23.23
2023-01-18T21:09:30.745Z,24.68
2023-01-18T21:14:30.894Z,25.92
2023-01-18T21:19:30.032Z,25.84
2023-01-18T21:24:29.276Z,26.56
2023-01-18T21:29:28.480Z,26.77
2023-01-18T21:34:27.644Z,26.48
2023-01-18T21:39:27.028Z,26.39
2023-01-18T21:44:26.080Z,27.40
2023-01-18T21:49:35.682Z,27.33
2023-01-18T21:54:23.793Z,27.95
2023-01-18T21:59:23.899Z,26.32
2023-01-18T22:04:22.263Z,25.61
2023-01-18T22:09:22.364Z,25.59
2023-01-18T22:14:21.594Z,26.68
2023-01-18T22:19:19.941Z,25.78
2023-01-18T22:24:21.182Z,25.98
2023-01-18T22:29:18.450Z,25.96
2023-01-18T22:34:19.201Z,26.97
2023-01-18T22:39:18.830Z,26.17
2023-01-18T22:44:20.222Z,26.17
2023-01-18T22:49:16.297Z,26.07
2023-01-18T22:54:15.637Z,26.48
2023-01-18T22:59:14.858Z,26.07
2023-01-18T23:04:14.068Z,26.18
2023-01-18T23:09:13.281Z,26.37
2023-01-18T23:14:12.472Z,26.47
2023-01-18T23:19:11.771Z,26.39
2023-01-18T23:24:10.000Z,25.98
2023-01-18T23:29:10.194Z,25.98
2023-01-18T23:34:09.544Z,26.20
2023-01-18T23:39:08.510Z,26.51
2023-01-18T23:44:07.727Z,26.22
2023-01-18T23:49:07.123Z,26.53
2023-01-18T23:54:05.144Z,26.72
2023-01-18T23:59:05.435Z,27.01
